createdAt,value
2018-11-29T00:01:02.992Z,8.17
2018-11-29T00:03:31.212Z,8.20
2018-11-29T00:05:59.465Z,8.18
2018-11-29T00:08:27.747Z,8.20
2018-11-29T00:10:55.966Z,8.19
2018-11-29T00:13:24.286Z,8.22
2018-11-29T00:15:52.543Z,8.21
2018-11-29T00:18:20.864Z,8.23
2018-11-29T00:20:49.099Z,8.25
2018-11-29T00:23:17.302Z,8.28
2018-11-29T00:25:45.518Z,8.32
2018-11-29T00:28:13.760Z,8.35
2018-11-29T00:30:42.025Z,8.38
2018-11-29T00:33:10.325Z,8.38
2018-11-29T00:35:38.543Z,8.41
2018-11-29T00:38:06.818Z,8.43
2018-11-29T00:40:35.028Z,8.47
2018-11-29T00:43:03.272Z,8.48
2018-11-29T00:45:31.579Z,8.50
2018-11-29T00:47:59.828Z,8.52
2018-11-29T00:50:28.157Z,8.53
2018-11-29T00:52:56.428Z,8.54
2018-11-29T00:55:24.693Z,8.56
2018-11-29T00:57:53.294Z,8.58
2018-11-29T01:00:23.234Z,8.60
2018-11-29T01:02:51.512Z,8.60
2018-11-29T01:05:19.804Z,8.61
2018-11-29T01:07:48.099Z,8.60
2018-11-29T01:10:17.686Z,8.62
2018-11-29T01:12:46.431Z,8.65
2018-11-29T01:15:15.618Z,8.65
2018-11-29T01:17:44.590Z,8.68
2018-11-29T01:20:13.784Z,8.68
2018-11-29T01:22:42.047Z,8.69
2018-11-29T01:25:11.303Z,8.70
2018-11-29T01:27:39.799Z,8.73
2018-11-29T01:30:10.574Z,8.73
2018-11-29T01:32:38.849Z,8.75
2018-11-29T01:35:07.963Z,8.77
2018-11-29T01:37:36.196Z,8.75
2018-11-29T01:40:04.719Z,8.76
2018-11-29T01:42:32.979Z,8.78
2018-11-29T01:45:01.196Z,8.80
2018-11-29T01:47:29.596Z,8.83
2018-11-29T01:49:57.947Z,8.81
2018-11-29T01:52:26.145Z,8.83
2018-11-29T01:54:54.383Z,8.86
2018-11-29T01:57:22.647Z,8.88
2018-11-29T01:59:50.945Z,8.88
2018-11-29T02:02:19.151Z,8.89
2018-11-29T02:04:47.481Z,8.89
2018-11-29T02:07:15.727Z,8.91
2018-11-29T02:09:43.993Z,8.92
2018-11-29T02:12:12.307Z,8.94
2018-11-29T02:14:40.582Z,8.95
2018-11-29T02:17:08.797Z,8.97
2018-11-29T02:19:37.160Z,8.98
2018-11-29T02:22:05.665Z,8.99
2018-11-29T02:24:33.991Z,9.01
2018-11-29T02:27:02.213Z,9.03
2018-11-29T02:29:30.414Z,9.05
2018-11-29T02:31:58.660Z,9.05
2018-11-29T02:34:26.902Z,9.05
2018-11-29T02:36:55.093Z,9.06
2018-11-29T02:39:23.353Z,9.06
2018-11-29T02:41:51.561Z,9.07
2018-11-29T02:44:19.925Z,9.07
2018-11-29T02:46:48.181Z,9.07
2018-11-29T02:49:16.474Z,9.06
2018-11-29T02:51:44.714Z,9.08
2018-11-29T02:54:13.002Z,9.07
2018-11-29T02:56:41.259Z,9.06
2018-11-29T02:59:09.553Z,9.06
2018-11-29T03:01:37.848Z,9.05
2018-11-29T03:04:06.429Z,9.06
2018-11-29T03:06:34.657Z,9.08
2018-11-29T03:09:02.885Z,9.08
2018-11-29T03:11:31.137Z,9.08
2018-11-29T03:13:59.980Z,9.10
2018-11-29T03:16:28.257Z,9.09
2018-11-29T03:18:56.484Z,9.09
2018-11-29T03:21:24.749Z,9.10
2018-11-29T03:23:53.021Z,9.12
2018-11-29T03:26:21.293Z,9.12
2018-11-29T03:28:49.591Z,9.13
2018-11-29T03:31:18.771Z,9.12
2018-11-29T03:33:47.058Z,9.13
2018-11-29T03:36:15.261Z,9.14
2018-11-29T03:38:43.508Z,9.15
2018-11-29T03:41:11.802Z,9.17
2018-11-29T03:43:40.162Z,9.18
2018-11-29T03:46:08.435Z,9.17
2018-11-29T03:48:36.668Z,9.17
2018-11-29T03:51:05.339Z,9.15
2018-11-29T03:53:33.613Z,9.17
2018-11-29T03:56:01.879Z,9.18
2018-11-29T03:58:30.081Z,9.18
2018-11-29T04:00:58.357Z,9.18
2018-11-29T04:03:26.585Z,9.18
2018-11-29T04:05:54.833Z,9.17
2018-11-29T04:08:23.076Z,9.19
2018-11-29T04:10:51.621Z,9.19
2018-11-29T04:13:19.902Z,9.19
2018-11-29T04:15:48.176Z,9.20
2018-11-29T04:18:16.441Z,9.23
2018-11-29T04:20:44.730Z,9.23
2018-11-29T04:23:12.987Z,9.23
2018-11-29T04:25:41.225Z,9.23
2018-11-29T04:28:09.465Z,9.25
2018-11-29T04:30:37.748Z,9.26
2018-11-29T04:33:05.980Z,9.27
2018-11-29T04:35:34.251Z,9.27
2018-11-29T04:38:02.493Z,9.29
2018-11-29T04:40:30.827Z,9.27
2018-11-29T04:42:59.069Z,9.28
2018-11-29T04:45:36.230Z,9.29
2018-11-29T04:48:09.870Z,9.29
2018-11-29T04:50:32.818Z,9.28
2018-11-29T04:53:01.087Z,9.26
2018-11-29T04:55:29.402Z,9.27
2018-11-29T04:57:57.766Z,9.26
2018-11-29T05:00:26.149Z,9.25
2018-11-29T05:02:54.369Z,9.22
2018-11-29T05:05:22.616Z,9.21
2018-11-29T05:07:50.873Z,9.21
2018-11-29T05:10:19.081Z,9.21
2018-11-29T05:12:47.873Z,9.21
2018-11-29T05:15:16.181Z,9.22
2018-11-29T05:17:44.503Z,9.24
2018-11-29T05:20:12.749Z,9.26
2018-11-29T05:22:41.018Z,9.25
2018-11-29T05:25:09.536Z,9.28
2018-11-29T05:27:37.933Z,9.31
2018-11-29T05:30:11.020Z,9.30
2018-11-29T05:32:39.365Z,9.31
2018-11-29T05:35:09.321Z,9.34
2018-11-29T05:37:37.573Z,9.34
2018-11-29T05:40:07.868Z,9.34
2018-11-29T05:42:36.164Z,9.35
2018-11-29T05:45:04.612Z,9.37
2018-11-29T05:47:32.925Z,9.36
2018-11-29T05:50:01.125Z,9.37
2018-11-29T05:52:29.342Z,9.39
2018-11-29T05:54:57.553Z,9.39
2018-11-29T05:57:25.809Z,9.39
2018-11-29T05:59:54.054Z,9.40
2018-11-29T06:02:22.352Z,9.40
2018-11-29T06:04:50.544Z,9.42
2018-11-29T06:07:18.795Z,9.43
2018-11-29T06:09:47.091Z,9.43
2018-11-29T06:12:15.358Z,9.45
2018-11-29T06:14:43.628Z,9.43
2018-11-29T06:17:11.893Z,9.44
2018-11-29T06:19:40.099Z,9.45
2018-11-29T06:22:08.349Z,9.44
2018-11-29T06:24:36.661Z,9.46
2018-11-29T06:27:04.887Z,9.48
2018-11-29T06:29:33.143Z,9.47
2018-11-29T06:32:01.421Z,9.48
2018-11-29T06:34:29.653Z,9.47
2018-11-29T06:36:57.963Z,9.48
2018-11-29T06:39:26.211Z,9.49
2018-11-29T06:41:54.421Z,9.51
2018-11-29T06:44:22.671Z,9.51
2018-11-29T06:46:50.925Z,9.52
2018-11-29T06:49:19.169Z,9.55
2018-11-29T06:51:47.489Z,9.55
2018-11-29T06:54:15.760Z,9.53
2018-11-29T06:56:43.989Z,9.52
2018-11-29T06:59:12.207Z,9.52
2018-11-29T07:01:40.436Z,9.53
2018-11-29T07:04:08.655Z,9.56
2018-11-29T07:06:36.925Z,9.59
2018-11-29T07:09:07.877Z,9.60
2018-11-29T07:11:36.085Z,9.60
2018-11-29T07:14:04.369Z,9.60
2018-11-29T07:16:32.606Z,9.60
2018-11-29T07:19:00.905Z,9.61
2018-11-29T07:21:44.352Z,9.62
2018-11-29T07:24:12.591Z,9.63
2018-11-29T07:26:40.823Z,9.65
2018-11-29T07:29:09.078Z,9.65
2018-11-29T07:31:37.394Z,9.66
2018-11-29T07:34:05.899Z,9.68
2018-11-29T07:36:34.144Z,9.70
2018-11-29T07:39:02.465Z,9.72
2018-11-29T07:41:30.711Z,9.74
2018-11-29T07:43:59.023Z,9.74
2018-11-29T07:46:27.252Z,9.76
2018-11-29T07:48:55.552Z,9.78
2018-11-29T07:51:23.790Z,9.80
2018-11-29T07:53:52.096Z,9.81
2018-11-29T07:56:20.305Z,9.81
2018-11-29T07:58:51.537Z,9.84
2018-11-29T08:01:16.806Z,9.86
2018-11-29T08:03:45.031Z,9.87
2018-11-29T08:06:13.290Z,9.88
2018-11-29T08:08:41.583Z,9.89
2018-11-29T08:11:09.801Z,9.90
2018-11-29T08:13:38.146Z,9.94
2018-11-29T08:16:07.108Z,9.97
2018-11-29T08:18:35.539Z,9.99
2018-11-29T08:21:03.887Z,10.03
2018-11-29T08:23:32.142Z,10.05
2018-11-29T08:26:00.406Z,10.05
2018-11-29T08:28:28.660Z,10.09
2018-11-29T08:30:56.898Z,10.10
2018-11-29T08:33:25.148Z,10.13
2018-11-29T08:35:53.438Z,10.15
2018-11-29T08:38:21.682Z,10.17
2018-11-29T08:40:49.975Z,10.20
2018-11-29T08:43:18.228Z,10.21
2018-11-29T08:45:46.449Z,10.24
2018-11-29T08:48:14.723Z,10.23
2018-11-29T08:50:42.952Z,10.26
2018-11-29T08:53:11.215Z,10.28
2018-11-29T08:55:39.506Z,10.31
2018-11-29T08:58:07.774Z,10.36
2018-11-29T09:00:36.086Z,10.43
2018-11-29T09:03:04.322Z,10.48
2018-11-29T09:05:34.088Z,10.51
2018-11-29T09:08:00.897Z,10.55
2018-11-29T09:10:31.750Z,10.60
2018-11-29T09:12:57.425Z,10.60
2018-11-29T09:15:25.679Z,10.63
2018-11-29T09:17:53.897Z,10.66
2018-11-29T09:20:22.606Z,10.69
2018-11-29T09:22:51.011Z,10.71
2018-11-29T09:25:23.015Z,10.71
2018-11-29T09:27:51.414Z,10.74
2018-11-29T09:30:21.208Z,10.78
2018-11-29T09:32:50.547Z,10.78
2018-11-29T09:35:18.743Z,10.77
2018-11-29T09:37:47.103Z,10.78
2018-11-29T09:40:16.265Z,10.76
2018-11-29T09:42:44.732Z,10.77
2018-11-29T09:45:14.211Z,10.79
2018-11-29T09:47:42.836Z,10.80
2018-11-29T09:50:13.200Z,10.84
2018-11-29T09:52:41.658Z,10.89
2018-11-29T09:55:12.769Z,10.92
2018-11-29T09:57:41.212Z,10.95
2018-11-29T10:00:28.178Z,10.98
2018-11-29T10:03:12.109Z,11.04
2018-11-29T10:05:41.428Z,11.13
2018-11-29T10:08:12.069Z,11.20
2018-11-29T10:10:39.106Z,11.26
2018-11-29T10:13:07.337Z,11.31
2018-11-29T10:15:35.610Z,11.34
2018-11-29T10:18:03.957Z,11.40
2018-11-29T10:20:32.414Z,11.43
2018-11-29T10:23:00.693Z,11.46
2018-11-29T10:25:28.913Z,11.47
2018-11-29T10:28:00.926Z,11.50
2018-11-29T10:30:31.125Z,11.48
2018-11-29T10:32:59.447Z,11.44
2018-11-29T10:35:27.675Z,11.44
2018-11-29T10:37:56.014Z,11.42
2018-11-29T10:40:24.349Z,11.43
2018-11-29T10:42:53.386Z,11.42
2018-11-29T10:45:21.747Z,11.43
2018-11-29T10:47:52.835Z,11.42
2018-11-29T10:50:20.654Z,11.41
2018-11-29T10:52:48.881Z,11.44
2018-11-29T10:55:18.141Z,11.45
2018-11-29T10:57:46.438Z,11.45
2018-11-29T11:01:23.943Z,11.44
2018-11-29T11:03:52.257Z,11.42
2018-11-29T11:06:20.554Z,11.45
2018-11-29T11:08:48.844Z,11.48
2018-11-29T11:11:17.050Z,11.51
2018-11-29T11:13:45.269Z,11.51
2018-11-29T11:16:13.554Z,11.52
2018-11-29T11:18:41.818Z,11.52
2018-11-29T11:21:10.091Z,11.51
2018-11-29T11:23:38.296Z,11.54
2018-11-29T11:26:06.528Z,11.57
2018-11-29T11:28:34.853Z,11.59
2018-11-29T11:31:03.676Z,11.64
2018-11-29T11:33:32.002Z,11.67
2018-11-29T11:36:00.234Z,11.69
2018-11-29T11:38:29.153Z,11.72
2018-11-29T11:40:57.452Z,11.73
2018-11-29T11:43:25.689Z,11.76
2018-11-29T11:45:54.000Z,11.78
2018-11-29T11:48:22.368Z,11.81
2018-11-29T11:50:50.636Z,11.85
2018-11-29T11:53:18.921Z,11.86
2018-11-29T11:55:53.382Z,11.89
2018-11-29T11:58:15.440Z,11.90
2018-11-29T12:00:43.742Z,11.91
2018-11-29T12:03:15.321Z,11.92
2018-11-29T12:05:43.689Z,11.93
2018-11-29T12:08:12.001Z,11.94
2018-11-29T12:10:41.467Z,11.93
2018-11-29T12:13:09.741Z,11.92
2018-11-29T12:15:38.451Z,11.91
2018-11-29T12:18:10.527Z,11.89
2018-11-29T12:20:38.967Z,11.85
2018-11-29T12:23:08.041Z,11.83
2018-11-29T12:25:36.280Z,11.83
2018-11-29T12:28:04.526Z,11.81
2018-11-29T12:30:36.687Z,11.82
2018-11-29T12:33:06.513Z,11.83
2018-11-29T12:35:34.768Z,11.81
2018-11-29T12:38:03.000Z,11.81
2018-11-29T12:40:31.337Z,11.79
2018-11-29T12:42:59.552Z,11.76
2018-11-29T12:45:27.788Z,11.74
2018-11-29T12:47:56.005Z,11.66
2018-11-29T12:50:25.482Z,11.58
2018-11-29T12:52:53.727Z,11.48
2018-11-29T12:55:23.200Z,11.39
2018-11-29T13:00:21.149Z,11.20
2018-11-29T13:02:50.432Z,11.16
2018-11-29T13:03:02.510Z,11.30
2018-11-29T13:05:18.697Z,11.09
2018-11-29T13:07:46.925Z,11.06
2018-11-29T13:10:17.319Z,11.05
2018-11-29T13:12:45.629Z,11.05
2018-11-29T13:15:16.277Z,11.04
2018-11-29T13:17:44.757Z,11.06
2018-11-29T13:20:14.177Z,11.06
2018-11-29T13:22:42.505Z,11.08
2018-11-29T13:25:12.066Z,11.15
2018-11-29T13:27:41.210Z,11.13
2018-11-29T13:30:11.128Z,11.11
2018-11-29T13:32:39.366Z,11.10
2018-11-29T13:35:12.931Z,11.11
2018-11-29T13:37:41.185Z,11.11
2018-11-29T13:40:11.024Z,11.11
2018-11-29T13:42:39.358Z,11.10
2018-11-29T13:45:09.247Z,11.06
2018-11-29T13:47:38.148Z,11.04
2018-11-29T13:50:09.373Z,11.06
2018-11-29T13:52:37.613Z,11.09
2018-11-29T13:55:06.953Z,11.11
2018-11-29T13:57:35.237Z,11.12
2018-11-29T14:00:03.493Z,11.08
2018-11-29T14:02:31.743Z,11.08
2018-11-29T14:05:00.052Z,11.05
2018-11-29T14:07:28.362Z,11.05
2018-11-29T14:09:56.560Z,11.03
2018-11-29T14:12:24.884Z,11.05
2018-11-29T14:14:53.146Z,11.06
2018-11-29T14:17:21.483Z,11.03
2018-11-29T14:19:49.718Z,11.02
2018-11-29T14:22:17.929Z,11.01
2018-11-29T14:24:46.196Z,10.97
2018-11-29T14:27:14.448Z,10.96
2018-11-29T14:29:42.815Z,10.94
2018-11-29T14:32:11.287Z,10.93
2018-11-29T14:34:39.384Z,10.93
2018-11-29T14:37:07.625Z,10.92
2018-11-29T14:39:35.857Z,10.91
2018-11-29T14:42:04.108Z,10.93
2018-11-29T14:44:32.435Z,10.92
2018-11-29T14:47:00.660Z,10.92
2018-11-29T14:49:28.930Z,10.88
2018-11-29T14:51:57.200Z,10.86
2018-11-29T14:54:25.489Z,10.84
2018-11-29T14:56:53.773Z,10.83
2018-11-29T14:59:22.028Z,10.83
2018-11-29T15:01:50.324Z,10.82
2018-11-29T15:04:18.599Z,10.81
2018-11-29T15:06:46.855Z,10.81
2018-11-29T15:09:15.085Z,10.85
2018-11-29T15:11:43.364Z,10.82
2018-11-29T15:14:11.631Z,10.79
2018-11-29T15:16:40.199Z,10.81
2018-11-29T15:19:08.481Z,10.82
2018-11-29T15:21:36.748Z,10.82
2018-11-29T15:24:05.097Z,10.86
2018-11-29T15:26:33.324Z,10.83
2018-11-29T15:29:01.661Z,10.82
2018-11-29T15:31:29.920Z,10.82
2018-11-29T15:33:58.193Z,10.83
2018-11-29T15:36:26.419Z,10.83
2018-11-29T15:38:54.669Z,10.81
2018-11-29T15:41:22.924Z,10.82
2018-11-29T15:43:51.165Z,10.86
2018-11-29T15:46:19.368Z,10.87
2018-11-29T15:48:47.688Z,10.88
2018-11-29T15:51:15.936Z,10.90
2018-11-29T15:53:44.197Z,10.87
2018-11-29T15:56:12.449Z,10.86
2018-11-29T15:58:40.757Z,10.85
2018-11-29T16:01:09.057Z,10.85
2018-11-29T16:03:37.315Z,10.85
2018-11-29T16:06:05.707Z,10.86
2018-11-29T16:08:33.922Z,10.86
2018-11-29T16:11:02.251Z,10.86
2018-11-29T16:13:30.499Z,10.90
2018-11-29T16:15:58.709Z,10.91
2018-11-29T16:18:26.970Z,10.92
2018-11-29T16:20:55.268Z,10.94
2018-11-29T16:23:23.510Z,10.97
2018-11-29T16:25:52.891Z,10.98
2018-11-29T16:28:21.106Z,10.97
2018-11-29T16:30:52.845Z,10.93
2018-11-29T16:33:24.725Z,10.95
2018-11-29T16:35:52.935Z,10.95
2018-11-29T16:38:21.175Z,10.95
2018-11-29T16:40:49.445Z,10.94
2018-11-29T16:43:17.699Z,10.92
2018-11-29T16:45:45.923Z,10.91
2018-11-29T16:48:14.271Z,10.88
2018-11-29T16:50:42.560Z,10.86
2018-11-29T16:53:10.827Z,10.85
2018-11-29T16:55:39.293Z,10.81
2018-11-29T16:58:10.125Z,10.77
2018-11-29T17:00:38.381Z,10.73
2018-11-29T17:03:06.645Z,10.63
2018-11-29T17:05:34.917Z,10.58
2018-11-29T17:08:03.442Z,10.51
2018-11-29T17:10:31.763Z,10.47
2018-11-29T17:13:01.596Z,10.42
2018-11-29T17:15:29.940Z,10.42
2018-11-29T17:17:58.201Z,10.44
2018-11-29T17:20:26.467Z,10.43
2018-11-29T17:22:54.741Z,10.42
2018-11-29T17:25:23.036Z,10.43
2018-11-29T17:27:51.273Z,10.45
2018-11-29T17:30:20.619Z,10.48
2018-11-29T17:32:49.672Z,10.48
2018-11-29T17:35:18.001Z,10.50
2018-11-29T17:37:47.053Z,10.53
2018-11-29T17:40:20.407Z,10.54
2018-11-29T17:42:48.662Z,10.57
2018-11-29T17:45:20.299Z,10.56
2018-11-29T17:47:48.984Z,10.55
2018-11-29T17:50:19.712Z,10.52
2018-11-29T17:52:47.956Z,10.51
2018-11-29T17:55:16.172Z,10.51
2018-11-29T17:57:44.417Z,10.52
2018-11-29T18:00:15.597Z,10.50
2018-11-29T18:02:44.003Z,10.51
2018-11-29T18:05:12.241Z,10.52
2018-11-29T18:07:40.490Z,10.54
2018-11-29T18:10:16.881Z,10.54
2018-11-29T18:12:46.007Z,10.55
2018-11-29T18:15:18.673Z,10.53
2018-11-29T18:17:46.905Z,10.53
2018-11-29T18:20:15.217Z,10.53
2018-11-29T18:22:43.481Z,10.53
2018-11-29T18:25:12.957Z,10.51
2018-11-29T18:27:42.787Z,10.47
2018-11-29T18:30:14.840Z,10.45
2018-11-29T18:32:43.076Z,10.41
2018-11-29T18:35:12.018Z,10.39
2018-11-29T18:37:40.415Z,10.36
2018-11-29T18:40:15.769Z,10.37
2018-11-29T18:42:44.288Z,10.37
2018-11-29T18:45:14.692Z,10.37
2018-11-29T18:47:43.646Z,10.37
2018-11-29T18:50:13.365Z,10.36
2018-11-29T18:52:41.642Z,10.33
2018-11-29T18:55:10.336Z,10.33
2018-11-29T18:57:38.575Z,10.32
2018-11-29T19:00:10.995Z,10.31
2018-11-29T19:02:39.245Z,10.31
2018-11-29T19:05:08.233Z,10.31
2018-11-29T19:07:36.571Z,10.26
2018-11-29T19:10:08.070Z,10.19
2018-11-29T19:12:36.391Z,10.13
2018-11-29T19:15:05.761Z,10.08
2018-11-29T19:17:34.011Z,10.03
2018-11-29T19:20:02.251Z,9.99
2018-11-29T19:22:30.551Z,9.97
2018-11-29T19:24:58.876Z,9.95
2018-11-29T19:27:27.088Z,9.93
2018-11-29T19:29:55.394Z,9.96
2018-11-29T19:32:23.687Z,10.03
2018-11-29T19:34:51.928Z,10.08
2018-11-29T19:37:20.194Z,10.12
2018-11-29T19:39:48.431Z,10.18
2018-11-29T19:42:16.755Z,10.25
2018-11-29T19:44:44.923Z,10.32
2018-11-29T19:47:13.224Z,10.35
2018-11-29T19:49:41.500Z,10.36
2018-11-29T19:52:09.797Z,10.38
2018-11-29T19:54:38.076Z,10.39
2018-11-29T19:57:06.542Z,10.39
2018-11-29T19:59:34.850Z,10.37
2018-11-29T20:02:03.087Z,10.36
2018-11-29T20:04:31.379Z,10.33
2018-11-29T20:06:59.662Z,10.29
2018-11-29T20:09:27.900Z,10.24
2018-11-29T20:11:56.226Z,10.18
2018-11-29T20:14:24.467Z,10.14
2018-11-29T20:16:52.743Z,10.11
2018-11-29T20:19:20.982Z,10.10
2018-11-29T20:21:49.303Z,10.10
2018-11-29T20:24:17.548Z,10.14
2018-11-29T20:26:45.820Z,10.14
2018-11-29T20:29:14.166Z,10.16
2018-11-29T20:31:42.377Z,10.18
2018-11-29T20:34:10.669Z,10.21
2018-11-29T20:36:38.919Z,10.22
2018-11-29T20:39:09.177Z,10.25
2018-11-29T20:41:37.467Z,10.25
2018-11-29T20:44:05.852Z,10.25
2018-11-29T20:46:34.159Z,10.24
2018-11-29T20:49:02.396Z,10.24
2018-11-29T20:51:30.630Z,10.26
2018-11-29T20:53:58.959Z,10.27
2018-11-29T20:56:27.193Z,10.29
2018-11-29T20:58:55.459Z,10.28
2018-11-29T21:01:23.808Z,10.29
2018-11-29T21:03:52.072Z,10.31
2018-11-29T21:06:20.336Z,10.33
2018-11-29T21:08:48.613Z,10.40
2018-11-29T21:11:16.888Z,10.43
2018-11-29T21:13:45.199Z,10.47
2018-11-29T21:16:13.453Z,10.51
2018-11-29T21:18:41.690Z,10.50
2018-11-29T21:21:09.980Z,10.53
2018-11-29T21:23:38.205Z,10.57
2018-11-29T21:26:06.713Z,10.57
2018-11-29T21:28:35.078Z,10.57
2018-11-29T21:31:03.352Z,10.59
2018-11-29T21:33:31.593Z,10.60
2018-11-29T21:35:59.967Z,10.59
2018-11-29T21:38:28.233Z,10.59
2018-11-29T21:40:59.197Z,10.57
2018-11-29T21:43:27.480Z,10.54
2018-11-29T21:45:55.745Z,10.53
2018-11-29T21:48:23.981Z,10.51
2018-11-29T21:50:52.217Z,10.50
2018-11-29T21:53:20.568Z,10.51
2018-11-29T21:55:48.824Z,10.51
2018-11-29T21:58:17.046Z,10.52
2018-11-29T22:00:45.300Z,10.54
2018-11-29T22:03:13.536Z,10.50
2018-11-29T22:05:41.769Z,10.50
2018-11-29T22:08:09.994Z,10.47
2018-11-29T22:10:38.210Z,10.49
2018-11-29T22:13:06.442Z,10.50
2018-11-29T22:15:34.727Z,10.47
2018-11-29T22:18:19.945Z,10.48
2018-11-29T22:20:50.558Z,10.48
2018-11-29T22:23:18.822Z,10.46
2018-11-29T22:25:47.029Z,10.45
2018-11-29T22:28:15.265Z,10.45
2018-11-29T22:30:43.538Z,10.48
2018-11-29T22:33:11.793Z,10.49
2018-11-29T22:35:40.107Z,10.51
2018-11-29T22:38:08.661Z,10.51
2018-11-29T22:40:37.003Z,10.53
2018-11-29T22:43:05.309Z,10.55
2018-11-29T22:45:33.624Z,10.56
2018-11-29T22:48:01.881Z,10.55
2018-11-29T22:50:30.129Z,10.56
2018-11-29T22:52:58.434Z,10.56
2018-11-29T22:55:26.658Z,10.57
2018-11-29T22:57:54.894Z,10.54
2018-11-29T23:00:23.143Z,10.57
2018-11-29T23:02:51.428Z,10.58
2018-11-29T23:05:19.701Z,10.59
2018-11-29T23:07:47.889Z,10.62
2018-11-29T23:10:16.141Z,10.65
2018-11-29T23:12:44.375Z,10.66
2018-11-29T23:15:12.944Z,10.68
2018-11-29T23:17:41.168Z,10.69
2018-11-29T23:20:11.572Z,10.69
2018-11-29T23:22:40.386Z,10.67
2018-11-29T23:25:13.200Z,10.68
2018-11-29T23:27:41.538Z,10.67
2018-11-29T23:30:14.614Z,10.66
2018-11-29T23:32:43.078Z,10.67
2018-11-29T23:35:12.151Z,10.67
2018-11-29T23:37:40.433Z,10.67
2018-11-29T23:40:11.198Z,10.65
2018-11-29T23:42:39.537Z,10.63
2018-11-29T23:45:09.349Z,10.63
2018-11-29T23:47:37.709Z,10.63
2018-11-29T23:50:14.689Z,10.61
2018-11-29T23:52:42.984Z,10.61
2018-11-29T23:55:14.422Z,10.58
2018-11-29T23:57:42.687Z,10.57
